Discovery — 3FII9 — position and weather

sailwx.info

Track history (hours):
 
Tides and Currents Weather Stations Pressure Air Temp Water Temp Dewpoint Dewpoint Depression Visibility Wind Speed Wind Dir Waves Ship Positions

Discovery

Operator: V Ships Leisure SAM

Last reported at 2014-Oct-21 22:10 UTC. Time now 2014-Oct-25 02:54 UTC.
Position N 41°01' E 028°60'.

Length 177 m; draft 6.2 m.

Type: Cargo ship. MMSI: 353389000.

Date/timePositionNaut miles runAvg speedWind from/ knotsBaromVisibWave heightAir tempDewpointWater temp
2014-Oct-21 22:10N 41°01' E 028°60'5 8.6
2014-Oct-21 21:33N 40°56' E 028°59'9 8.9
2014-Oct-21 20:33N 40°50' E 028°50'1 1.0
2014-Oct-21 19:33N 40°49' E 028°51'1 1.1
2014-Oct-21 18:33N 40°50' E 028°51'1 0.9
2014-Oct-21 17:33N 40°49' E 028°51'0 0.0
2014-Oct-21 16:27N 40°49' E 028°51'7 7.6
2014-Oct-21 15:33N 40°50' E 028°42'1312.6
2014-Oct-21 14:33N 40°48' E 028°26'1413.9
2014-Oct-21 13:33N 40°46' E 028°08'1413.7
2014-Oct-21 12:33N 40°44' E 027°50'5413.5
2014-Oct-21 08:31N 40°25' E 026°43'4110.4
2014-Oct-21 04:32N 39°59' E 026°01'1111.2
2014-Oct-21 03:34N 39°50' E 025°51'1413.2
2014-Oct-21 02:30N 39°36' E 025°49'4113.7
2014-Oct-20 23:29N 38°55' E 025°44'4013.7
2014-Oct-20 20:33N 38°15' E 025°46'1313.2
2014-Oct-20 19:32N 38°02' E 025°47'3012.4
2014-Oct-20 17:09N 37°32' E 025°49'711.3
2014-Oct-20 16:33N 37°26' E 025°53'1111.3
2014-Oct-20 15:33N 37°16' E 025°59'1211.8
2014-Oct-20 14:33N 37°06' E 026°06'1312.8
2014-Oct-20 13:33N 36°55' E 026°15'1212.4
2014-Oct-20 12:33N 36°46' E 026°25'1311.8
2014-Oct-20 11:27N 36°36' E 026°36'  
2014-Oct-12 03:33N 36°01' E 026°03'1414.2
2014-Oct-12 02:33N 36°01' E 025°46'1414.1
2014-Oct-12 01:33N 36°01' E 025°28'1413.9
2014-Oct-12 00:33N 36°02' E 025°11'1413.8
2014-Oct-11 23:34N 36°01' E 024°54'1414.0
2014-Oct-11 22:33N 36°01' E 024°37'  
Track history (hours):
 
Tides and Currents Weather Stations Pressure Air Temp Water Temp Dewpoint Dewpoint Depression Visibility Wind Speed Wind Dir Waves Ship Positions

Discovery

Operator: V Ships Leisure SAM

Last reported at 2014-Oct-21 22:10 UTC. Time now 2014-Oct-25 02:54 UTC.
Position N 41°01' E 028°60'.

Length 177 m; draft 6.2 m.

Type: Cargo ship. MMSI: 353389000.

Date/timePositionNaut miles runAvg speedWind from/ knotsBaromVisibWave heightAir tempDewpointWater temp
2014-Oct-21 22:10N 41°01' E 028°60'5 8.6
2014-Oct-21 21:33N 40°56' E 028°59'9 8.9
2014-Oct-21 20:33N 40°50' E 028°50'1 1.0
2014-Oct-21 19:33N 40°49' E 028°51'1 1.1
2014-Oct-21 18:33N 40°50' E 028°51'1 0.9
2014-Oct-21 17:33N 40°49' E 028°51'0 0.0
2014-Oct-21 16:27N 40°49' E 028°51'7 7.6
2014-Oct-21 15:33N 40°50' E 028°42'1312.6
2014-Oct-21 14:33N 40°48' E 028°26'1413.9
2014-Oct-21 13:33N 40°46' E 028°08'1413.7
2014-Oct-21 12:33N 40°44' E 027°50'5413.5
2014-Oct-21 08:31N 40°25' E 026°43'4110.4
2014-Oct-21 04:32N 39°59' E 026°01'1111.2
2014-Oct-21 03:34N 39°50' E 025°51'1413.2
2014-Oct-21 02:30N 39°36' E 025°49'4113.7
2014-Oct-20 23:29N 38°55' E 025°44'4013.7
2014-Oct-20 20:33N 38°15' E 025°46'1313.2
2014-Oct-20 19:32N 38°02' E 025°47'3012.4
2014-Oct-20 17:09N 37°32' E 025°49'711.3
2014-Oct-20 16:33N 37°26' E 025°53'1111.3
2014-Oct-20 15:33N 37°16' E 025°59'1211.8
2014-Oct-20 14:33N 37°06' E 026°06'1312.8
2014-Oct-20 13:33N 36°55' E 026°15'1212.4
2014-Oct-20 12:33N 36°46' E 026°25'1311.8
2014-Oct-20 11:27N 36°36' E 026°36'  
2014-Oct-12 03:33N 36°01' E 026°03'1414.2
2014-Oct-12 02:33N 36°01' E 025°46'1414.1
2014-Oct-12 01:33N 36°01' E 025°28'1413.9
2014-Oct-12 00:33N 36°02' E 025°11'1413.8
2014-Oct-11 23:34N 36°01' E 024°54'1414.0
2014-Oct-11 22:33N 36°01' E 024°37'  

Dump ship's entire track history